Time;durP1;ratioP1;P1;durP2;ratioP2;P2;SDS_P1;SDS_P2;PMS_P1;PMS_P2;Temp;Humidity;BMP_temperature;BMP_pressure;BME280_temperature;BME280_humidity;BME280_pressure;Samples;Min_cycle;Max_cycle;Signal;HPM_P1;HPM_P2
2021/04/15 00:00:54;;;;;;;5.57;1.90;;;3.90;62.80;;;;;;2260716;56;20961;-64
2021/04/15 00:03:22;;;;;;;6.73;2.03;;;4.00;62.90;;;;;;2489310;55;21496;-66
2021/04/15 00:05:49;;;;;;;3.67;1.77;;;3.90;62.70;;;;;;2260519;55;21112;-63
2021/04/15 00:08:17;;;;;;;3.20;1.58;;;3.90;62.70;;;;;;2257479;56;20960;-67
2021/04/15 00:10:45;;;;;;;3.78;1.98;;;3.90;62.80;;;;;;2263673;55;21371;-64
2021/04/15 00:13:34;;;;;;;5.72;2.10;;;3.90;62.80;;;;;;2487563;55;21020;-66
2021/04/15 00:16:02;;;;;;;4.65;2.20;;;3.80;62.40;;;;;;2463157;55;21802;-65
2021/04/15 00:18:28;;;;;;;5.22;2.05;;;3.80;62.60;;;;;;2242997;55;21537;-64
2021/04/15 00:20:57;;;;;;;5.90;2.40;;;3.80;62.60;;;;;;2486691;55;21084;-65
2021/04/15 00:23:24;;;;;;;4.70;2.17;;;3.70;62.60;;;;;;2259983;56;20992;-66
2021/04/15 00:25:50;;;;;;;4.18;2.30;;;3.80;62.80;;;;;;2260363;56;20961;-64
2021/04/15 00:28:17;;;;;;;3.62;1.87;;;3.70;62.70;;;;;;2259990;56;20993;-66
2021/04/15 00:30:43;;;;;;;3.65;1.80;;;3.70;62.80;;;;;;2488879;55;21049;-65
2021/04/15 00:33:11;;;;;;;5.20;1.87;;;3.70;62.80;;;;;;2264309;55;20937;-66
2021/04/15 00:35:41;;;;;;;4.60;1.90;;;3.60;62.80;;;;;;2488180;55;21021;-67
2021/04/15 00:38:08;;;;;;;3.37;1.90;;;3.60;62.90;;;;;;2489144;55;20976;-66
2021/04/15 00:40:36;;;;;;;3.47;1.80;;;3.60;63.00;;;;;;2264099;55;20953;-63
2021/04/15 00:43:02;;;;;;;4.55;1.80;;;3.60;63.10;;;;;;2260342;55;21005;-66
2021/04/15 00:45:32;;;;;;;4.55;1.70;;;3.60;63.20;;;;;;2488606;55;20962;-65
2021/04/15 00:48:23;;;;;;;4.12;1.80;;;3.60;63.20;;;;;;2251386;56;20968;-65
2021/04/15 00:51:06;;;;;;;4.60;2.00;;;3.60;63.20;;;;;;2466404;55;20976;-64
2021/04/15 00:53:47;;;;;;;4.00;1.83;;;3.60;64.00;;;;;;2463495;55;21041;-65
2021/04/15 00:56:14;;;;;;;4.87;2.03;;;3.60;63.40;;;;;;2260767;56;21786;-66
2021/04/15 00:58:40;;;;;;;5.97;1.90;;;3.60;63.50;;;;;;2263673;55;21079;-66
2021/04/15 01:01:06;;;;;;;3.83;1.98;;;3.60;63.60;;;;;;2267444;55;20968;-63
2021/04/15 01:03:33;;;;;;;5.75;2.10;;;3.60;63.60;;;;;;2239406;56;20945;-64
2021/04/15 01:06:00;;;;;;;4.15;2.12;;;3.60;63.80;;;;;;2242574;56;20969;-65
2021/04/15 01:08:27;;;;;;;4.78;2.28;;;3.60;63.90;;;;;;2263868;55;20964;-64
2021/04/15 01:11:21;;;;;;;4.30;2.20;;;3.70;64.00;;;;;;2264133;55;21041;-66
2021/04/15 01:15:30;;;;;;;4.47;2.10;;;3.70;63.90;;;;;;2268319;55;20960;-62
2021/04/15 01:18:03;;;;;;;4.55;2.10;;;3.70;63.40;;;;;;2488893;55;20989;-68
2021/04/15 01:22:05;;;;;;;;;;;3.70;64.10;;;;;;2492941;55;20947;-66
2021/04/15 01:24:58;;;;;;;4.12;2.20;;;3.70;63.40;;;;;;2242506;56;20081;-64
2021/04/15 01:31:04;;;;;;;5.40;2.67;;;3.80;64.10;;;;;;2260484;56;20996;-64
2021/04/15 01:33:37;;;;;;;4.77;2.83;;;3.80;63.70;;;;;;2242645;56;20968;-65
2021/04/15 01:36:21;;;;;;;5.95;2.95;;;3.90;64.70;;;;;;2464026;55;21028;-66
2021/04/15 01:38:59;;;;;;;4.50;2.35;;;3.90;64.90;;;;;;2489116;55;21011;-64
2021/04/15 01:42:02;;;;;;;4.40;2.78;;;3.90;65.00;;;;;;2488193;55;20941;-63
2021/04/15 01:44:50;;;;;;;6.03;2.50;;;4.00;65.10;;;;;;2488769;55;20981;-65
2021/04/15 01:47:20;;;;;;;4.85;2.90;;;4.00;65.20;;;;;;2260622;56;21456;-63
2021/04/15 01:49:50;;;;;;;5.40;3.25;;;4.10;65.40;;;;;;2263720;55;20989;-67
2021/04/15 01:52:16;;;;;;;5.70;2.90;;;4.10;65.40;;;;;;2263875;55;21034;-65
2021/04/15 01:55:25;;;;;;;4.55;2.85;;;4.10;65.40;;;;;;2259691;56;20941;-66
2021/04/15 01:58:20;;;;;;;5.25;2.92;;;4.20;65.20;;;;;;2489262;55;20948;-64
2021/04/15 02:00:49;;;;;;;6.07;2.75;;;4.20;65.10;;;;;;2260690;56;20956;-65
2021/04/15 02:03:20;;;;;;;4.10;2.30;;;4.30;65.30;;;;;;2263748;55;20998;-66
2021/04/15 02:05:46;;;;;;;5.47;2.80;;;4.30;65.20;;;;;;2259780;55;20948;-66
2021/04/15 02:08:17;;;;;;;6.22;2.90;;;4.30;65.20;;;;;;2264063;55;21297;-64
2021/04/15 02:14:18;;;;;;;5.53;2.85;;;4.40;64.70;;;;;;2489297;55;21028;-65
2021/04/15 02:16:50;;;;;;;6.07;2.70;;;4.40;64.70;;;;;;2260651;56;20965;-68
2021/04/15 02:19:39;;;;;;;6.50;2.80;;;4.40;64.60;;;;;;2489593;55;21020;-63
2021/04/15 02:25:05;;;;;;;4.85;3.10;;;4.40;64.40;;;;;;2241789;56;21747;-66
2021/04/15 02:28:09;;;;;;;5.12;2.75;;;4.40;63.70;;;;;;2264010;55;21064;-68
2021/04/15 02:30:45;;;;;;;5.10;2.30;;;4.40;64.00;;;;;;2489371;55;21013;-63
2021/04/15 02:33:25;;;;;;;3.80;2.12;;;4.30;64.20;;;;;;2490096;55;20953;-65
2021/04/15 02:35:54;;;;;;;4.00;2.15;;;4.30;64.30;;;;;;2264249;55;20960;-65
2021/04/15 02:38:25;;;;;;;4.43;2.45;;;4.30;64.40;;;;;;2260450;56;20957;-70
2021/04/15 02:40:56;;;;;;;4.00;2.00;;;4.30;64.30;;;;;;2263710;55;20953;-65
2021/04/15 02:43:48;;;;;;;5.47;2.50;;;4.30;64.40;;;;;;2488761;55;21033;-64
2021/04/15 02:46:17;;;;;;;3.67;2.33;;;4.30;64.20;;;;;;2259797;56;21048;-62
2021/04/15 02:48:43;;;;;;;4.12;2.40;;;4.20;64.30;;;;;;2262571;55;21077;-64
2021/04/15 02:51:13;;;;;;;4.25;2.03;;;4.20;64.30;;;;;;2263723;55;21081;-64
2021/04/15 02:53:45;;;;;;;5.28;2.58;;;4.20;64.40;;;;;;2489514;55;21001;-65
2021/04/15 02:56:29;;;;;;;3.90;2.37;;;4.20;64.40;;;;;;2446594;55;20956;-66
2021/04/15 03:00:27;;;;;;;5.10;2.72;;;4.20;64.20;;;;;;2249927;56;21782;-63
2021/04/15 03:03:33;;;;;;;5.28;2.45;;;4.20;64.40;;;;;;2487820;55;20984;-66
2021/04/15 03:06:13;;;;;;;4.40;2.40;;;4.20;64.30;;;;;;2487215;55;21025;-66
2021/04/15 03:08:40;;;;;;;4.53;2.25;;;4.20;64.40;;;;;;2468521;55;21005;-66
2021/04/15 03:11:20;;;;;;;4.40;2.03;;;4.20;64.50;;;;;;2464599;55;21024;-69
2021/04/15 03:13:51;;;;;;;4.60;2.65;;;4.20;64.40;;;;;;2240902;55;21044;-65
2021/04/15 03:16:18;;;;;;;5.22;2.50;;;4.20;64.50;;;;;;2260506;55;20957;-65
2021/04/15 03:19:24;;;;;;;6.00;2.80;;;4.10;64.50;;;;;;2257473;55;21252;-66
2021/04/15 03:23:15;;;;;;;5.85;2.33;;;4.20;64.50;;;;;;2260255;55;20937;-65
2021/04/15 03:25:41;;;;;;;4.22;1.90;;;4.20;64.10;;;;;;2256431;55;21549;-66
2021/04/15 03:28:16;;;;;;;3.67;2.10;;;4.20;64.50;;;;;;2260420;55;21533;-63
2021/04/15 03:31:09;;;;;;;3.75;1.90;;;4.10;64.30;;;;;;2486320;55;21015;-63
2021/04/15 03:34:14;;;;;;;4.12;2.30;;;4.10;64.10;;;;;;2258543;55;20932;-64
2021/04/15 03:37:03;;;;;;;5.95;2.28;;;4.10;64.30;;;;;;2506477;55;20996;-65
2021/04/15 03:39:36;;;;;;;5.50;2.80;;;4.10;64.00;;;;;;2500160;55;21025;-66
2021/04/15 03:42:23;;;;;;;5.55;2.22;;;4.00;64.00;;;;;;2279998;55;21441;-67
2021/04/15 03:44:55;;;;;;;5.18;2.58;;;4.00;64.00;;;;;;2275130;55;21021;-65
2021/04/15 03:47:32;;;;;;;4.72;2.87;;;4.00;64.00;;;;;;2489106;55;21434;-63
2021/04/15 03:50:07;;;;;;;5.95;3.22;;;4.00;63.90;;;;;;2483108;55;21048;-65
2021/04/15 03:52:43;;;;;;;5.05;2.80;;;3.90;63.80;;;;;;2283861;55;21002;-65
2021/04/15 03:55:32;;;;;;;4.07;2.35;;;3.90;63.80;;;;;;2262506;56;21047;-64
2021/04/15 03:58:19;;;;;;;4.05;2.40;;;4.00;63.70;;;;;;2494882;55;21664;-63
2021/04/15 04:01:51;;;;;;;5.72;2.72;;;3.80;63.50;;;;;;2260728;55;21017;-66
2021/04/15 04:04:44;;;;;;;4.43;2.53;;;3.80;63.40;;;;;;2486303;55;20969;-67
2021/04/15 04:08:08;;;;;;;5.55;3.40;;;3.80;63.90;;;;;;2241615;56;21044;-62
2021/04/15 04:10:42;;;;;;;5.35;3.10;;;3.70;64.00;;;;;;2473077;55;21175;-64
2021/04/15 04:13:28;;;;;;;5.32;3.10;;;3.70;64.40;;;;;;2456516;55;21468;-64
2021/04/15 04:16:19;;;;;;;5.82;3.35;;;3.70;64.50;;;;;;2460899;55;20952;-66
2021/04/15 04:19:28;;;;;;;7.60;3.10;;;3.70;64.60;;;;;;2243721;56;20955;-66
2021/04/15 04:22:22;;;;;;;4.87;2.90;;;3.70;64.50;;;;;;2250010;56;21042;-63
2021/04/15 04:31:29;;;;;;;4.70;2.53;;;3.70;64.50;;;;;;2244022;56;21472;-65
2021/04/15 04:33:55;;;;;;;4.70;2.60;;;3.70;64.50;;;;;;2235884;56;21008;-67
2021/04/15 04:36:25;;;;;;;5.68;2.60;;;3.70;64.20;;;;;;2239939;56;20968;-64
2021/04/15 04:38:55;;;;;;;5.35;2.80;;;3.60;64.10;;;;;;2254170;56;20946;-67
2021/04/15 04:41:58;;;;;;;6.35;2.90;;;3.60;64.10;;;;;;2261095;55;20972;-67
2021/04/15 04:48:13;;;;;;;7.57;3.30;;;3.60;63.50;;;;;;2473783;55;20133;-64
2021/04/15 04:50:45;;;;;;;7.40;3.40;;;3.60;63.90;;;;;;2243103;56;21655;-66
2021/04/15 04:53:26;;;;;;;6.30;3.40;;;3.50;64.00;;;;;;2474250;55;20975;-65
2021/04/15 04:59:33;;;;;;;6.45;3.78;;;3.50;64.00;;;;;;2459118;55;21475;-67
2021/04/15 05:02:00;;;;;;;6.32;3.15;;;3.40;63.30;;;;;;2235877;56;21011;-64
2021/04/15 05:04:33;;;;;;;7.57;4.70;;;3.40;63.90;;;;;;2250385;56;20995;-68
2021/04/15 05:07:01;;;;;;;8.50;4.30;;;3.30;64.00;;;;;;2467722;55;20975;-66
2021/04/15 05:09:42;;;;;;;6.53;4.07;;;3.30;64.20;;;;;;2239787;56;21010;-64
2021/04/15 05:12:14;;;;;;;7.07;4.18;;;3.30;64.20;;;;;;2466779;55;20979;-67
2021/04/15 05:14:43;;;;;;;7.95;4.57;;;3.30;64.40;;;;;;2235295;56;20992;-66
2021/04/15 05:17:43;;;;;;;10.30;5.43;;;3.30;64.50;;;;;;2255737;56;20952;-65
2021/04/15 05:20:14;;;;;;;10.70;4.87;;;3.30;64.40;;;;;;2264617;56;20981;-65
2021/04/15 05:22:56;;;;;;;10.18;5.47;;;3.30;64.70;;;;;;2474107;55;21420;-65
2021/04/15 05:25:44;;;;;;;8.75;5.10;;;3.30;64.80;;;;;;2235712;56;20942;-67
2021/04/15 05:28:34;;;;;;;7.43;4.35;;;3.30;64.70;;;;;;2243238;56;20971;-64
2021/04/15 05:31:03;;;;;;;8.82;5.03;;;3.30;64.90;;;;;;2458389;55;20948;-66
2021/04/15 05:37:15;;;;;;;10.98;5.28;;;3.30;64.90;;;;;;2459105;55;21045;-63
2021/04/15 05:40:01;;;;;;;10.52;6.28;;;3.30;65.10;;;;;;2261113;56;20981;-64
2021/04/15 05:42:34;;;;;;;9.73;5.85;;;3.30;65.00;;;;;;2264433;56;21047;-65
2021/04/15 05:45:10;;;;;;;10.23;6.20;;;3.40;65.30;;;;;;2242056;56;20983;-65
2021/04/15 05:47:56;;;;;;;13.57;6.95;;;3.40;65.40;;;;;;2465135;55;21526;-66
2021/04/15 05:50:50;;;;;;;14.70;8.00;;;3.40;65.40;;;;;;2243332;56;22066;-65
2021/04/15 05:53:31;;;;;;;11.65;6.57;;;3.40;65.40;;;;;;2232000;56;20987;-66
2021/04/15 05:56:14;;;;;;;10.30;5.90;;;3.50;65.70;;;;;;2455969;55;21032;-64
2021/04/15 06:00:33;;;;;;;10.05;6.05;;;3.50;65.80;;;;;;2455037;55;21785;-66
2021/04/15 06:03:29;;;;;;;9.48;5.35;;;3.50;65.50;;;;;;2456512;55;21476;-63
2021/04/15 06:06:34;;;;;;;10.82;5.85;;;3.60;66.10;;;;;;2233361;56;21027;-67
2021/04/15 06:09:00;;;;;;;7.60;4.62;;;3.60;66.20;;;;;;2264247;55;20989;-65
2021/04/15 06:13:25;;;;;;;9.40;5.10;;;3.60;66.30;;;;;;2236864;56;21043;-66
2021/04/15 06:15:59;;;;;;;8.00;4.85;;;3.70;65.90;;;;;;2481766;55;21464;-67
2021/04/15 06:20:22;;;;;;;8.25;4.45;;;3.80;66.50;;;;;;2260107;56;20941;-65
2021/04/15 06:22:54;;;;;;;6.53;4.20;;;3.80;66.10;;;;;;2452205;55;20984;-65
2021/04/15 06:25:27;;;;;;;7.53;4.30;;;3.80;66.70;;;;;;2259201;56;21036;-65
2021/04/15 06:27:56;;;;;;;9.35;4.72;;;3.90;66.80;;;;;;2478712;55;21020;-62
2021/04/15 06:30:28;;;;;;;8.38;4.72;;;4.00;67.00;;;;;;2483285;55;21001;-65
2021/04/15 06:32:58;;;;;;;6.53;4.30;;;4.00;67.10;;;;;;2489393;55;20988;-65
2021/04/15 06:35:29;;;;;;;7.82;4.87;;;4.10;67.10;;;;;;2260368;56;21009;-65
2021/04/15 06:39:52;;;;;;;7.55;4.72;;;4.10;67.20;;;;;;2489217;55;20961;-66
2021/04/15 06:42:47;;;;;;;6.78;3.67;;;4.20;66.70;;;;;;2263860;55;20956;-68
2021/04/15 06:45:54;;;;;;;6.50;4.05;;;4.30;67.40;;;;;;2260410;56;21397;-66
2021/04/15 06:48:52;;;;;;;7.32;4.82;;;4.40;67.70;;;;;;2242715;56;21496;-65
2021/04/15 06:52:20;;;;;;;9.15;5.32;;;4.50;69.50;;;;;;2489013;55;21462;-66
2021/04/15 06:55:00;;;;;;;9.07;4.72;;;4.80;71.90;;;;;;2260162;55;20957;-67
2021/04/15 06:57:59;;;;;;;8.15;4.90;;;5.30;73.60;;;;;;2260229;56;20997;-67
2021/04/15 07:02:04;;;;;;;6.30;4.00;;;5.60;74.30;;;;;;2242590;56;20981;-63
2021/04/15 07:04:51;;;;;;;5.07;3.80;;;6.10;75.10;;;;;;2260300;56;21022;-66
2021/04/15 07:07:22;;;;;;;6.03;3.97;;;6.80;76.20;;;;;;2260226;56;21100;-66
2021/04/15 07:10:27;;;;;;;5.37;3.17;;;7.20;77.50;;;;;;2263408;55;21046;-66
2021/04/15 07:13:33;;;;;;;5.72;3.53;;;7.80;77.80;;;;;;2263310;55;20968;-65
2021/04/15 07:16:28;;;;;;;5.05;3.30;;;8.50;78.00;;;;;;2260549;56;20977;-65
2021/04/15 07:19:59;;;;;;;5.20;3.08;;;9.20;77.80;;;;;;2245846;56;20968;-66
2021/04/15 07:23:49;;;;;;;5.85;3.42;;;9.90;76.00;;;;;;2264211;55;20953;-64
2021/04/15 07:28:03;;;;;;;4.70;3.20;;;10.70;74.00;;;;;;2260512;56;21041;-66
2021/04/15 07:32:24;;;;;;;4.90;2.85;;;11.30;73.70;;;;;;2264384;55;21073;-66
2021/04/15 07:42:01;;;;;;;4.50;2.83;;;12.00;73.70;;;;;;2488848;55;21005;-66
2021/04/15 07:44:40;;;;;;;4.60;2.92;;;13.50;66.80;;;;;;2265784;55;20993;-67
2021/04/15 07:50:29;;;;;;;5.28;2.83;;;13.50;65.00;;;;;;2259798;55;21020;-66
2021/04/15 07:56:20;;;;;;;4.70;2.70;;;13.40;63.10;;;;;;2249817;55;21889;-66
2021/04/15 07:59:29;;;;;;;4.43;2.78;;;13.20;61.70;;;;;;2259837;56;20965;-67
2021/04/15 08:06:02;;;;;;;5.32;3.62;;;12.70;62.30;;;;;;2261767;56;20981;-66
2021/04/15 08:12:02;;;;;;;5.97;3.97;;;12.40;62.50;;;;;;2463061;55;21037;-67
2021/04/15 08:15:25;;;;;;;5.57;3.70;;;12.30;65.60;;;;;;2245963;56;21017;-67
2021/04/15 08:21:02;;;;;;;6.68;3.42;;;12.70;68.10;;;;;;2262753;56;21081;-66
2021/04/15 08:23:43;;;;;;;4.28;2.83;;;12.90;69.30;;;;;;2242832;56;21478;-64
2021/04/15 08:26:33;;;;;;;4.95;3.30;;;13.50;69.50;;;;;;2489334;55;21701;-65
2021/04/15 08:35:57;;;;;;;6.87;3.53;;;13.70;67.80;;;;;;2227184;56;21000;-65
2021/04/15 08:39:03;;;;;;;6.37;2.75;;;13.90;69.00;;;;;;2475002;55;22195;-66
2021/04/15 08:43:59;;;;;;;3.97;3.00;;;14.50;66.40;;;;;;2253842;56;22012;-66
2021/04/15 08:46:30;;;;;;;5.25;3.53;;;14.60;64.80;;;;;;2247554;56;21025;-67
2021/04/15 08:49:05;;;;;;;5.18;3.22;;;14.50;64.40;;;;;;2225946;56;20971;-66
2021/04/15 08:52:18;;;;;;;5.65;3.22;;;14.40;63.00;;;;;;2462486;55;21012;-67
2021/04/15 08:56:20;;;;;;;5.43;3.25;;;14.20;61.40;;;;;;2255417;56;21524;-66
2021/04/15 08:59:01;;;;;;;6.32;3.53;;;14.10;63.70;;;;;;2230054;56;20984;-65
2021/04/15 09:03:17;;;;;;;4.85;3.37;;;13.90;62.80;;;;;;2474556;54;20980;-63
2021/04/15 09:07:39;;;;;;;4.93;3.40;;;13.70;61.40;;;;;;2237085;56;21559;-66
2021/04/15 09:17:14;;;;;;;3.62;2.25;;;13.60;62.20;;;;;;2250573;56;20983;-65
2021/04/15 09:20:20;;;;;;;3.70;2.25;;;13.50;64.10;;;;;;2254809;56;21024;-66
2021/04/15 09:23:50;;;;;;;5.45;3.08;;;13.20;62.50;;;;;;2254590;56;21468;-67
2021/04/15 09:32:12;;;;;;;4.93;2.85;;;13.00;61.50;;;;;;2260500;56;20940;-69
2021/04/15 09:35:20;;;;;;;4.35;2.78;;;12.70;61.70;;;;;;2228245;56;21399;-67
2021/04/15 09:39:40;;;;;;;5.40;3.30;;;12.50;62.40;;;;;;2475271;55;20989;-65
2021/04/15 09:42:32;;;;;;;7.37;2.65;;;12.40;63.20;;;;;;2242466;56;21021;-66
2021/04/15 09:45:22;;;;;;;4.97;3.17;;;12.30;64.80;;;;;;2264169;55;21032;-65
2021/04/15 09:48:07;;;;;;;5.07;3.33;;;12.20;64.60;;;;;;2260293;55;21040;-67
2021/04/15 09:50:53;;;;;;;5.97;3.40;;;12.20;65.60;;;;;;2489534;55;20959;-67
2021/04/15 09:53:44;;;;;;;5.82;3.83;;;12.20;65.50;;;;;;2263502;55;20969;-66
2021/04/15 10:00:40;;;;;;;5.87;3.47;;;12.10;64.90;;;;;;2264144;56;21021;-63
2021/04/15 10:03:42;;;;;;;4.32;2.78;;;12.10;63.70;;;;;;2488515;55;21493;-64
2021/04/15 10:06:18;;;;;;;4.25;2.72;;;12.10;64.60;;;;;;2250850;55;20975;-67
2021/04/15 10:10:48;;;;;;;5.00;2.72;;;12.10;66.00;;;;;;2251006;55;21066;-66
2021/04/15 10:13:40;;;;;;;5.22;2.58;;;12.10;64.20;;;;;;2488536;55;21103;-67
2021/04/15 10:18:50;;;;;;;5.03;3.47;;;12.10;67.00;;;;;;2264266;55;20933;-65
2021/04/15 10:23:05;;;;;;;5.65;3.67;;;12.40;67.90;;;;;;2260330;56;20936;-68
2021/04/15 10:30:14;;;;;;;4.68;3.30;;;12.70;72.20;;;;;;2260442;56;21504;-64
2021/04/15 10:33:07;;;;;;;4.62;2.90;;;13.40;70.50;;;;;;2488525;55;20945;-68
2021/04/15 10:36:10;;;;;;;3.75;2.45;;;13.80;67.20;;;;;;2257051;56;20993;-66
2021/04/15 10:45:18;;;;;;;3.97;2.30;;;13.80;66.40;;;;;;2489028;55;21004;-66
2021/04/15 10:50:59;;;;;;;3.60;2.12;;;13.90;66.60;;;;;;2263647;56;21986;-68
2021/04/15 10:54:25;;;;;;;4.25;2.47;;;14.10;65.80;;;;;;2260206;56;20973;-64
2021/04/15 10:56:56;;;;;;;4.75;2.60;;;14.20;66.70;;;;;;2489068;55;21447;-68
2021/04/15 10:59:35;;;;;;;7.62;3.20;;;14.30;69.90;;;;;;2261037;55;20944;-66
2021/04/15 11:03:35;;;;;;;5.60;2.57;;;14.60;70.50;;;;;;2255360;56;21469;-65
2021/04/15 11:06:37;;;;;;;4.87;2.60;;;15.10;70.00;;;;;;2478511;55;21036;-64
2021/04/15 11:09:54;;;;;;;4.15;2.50;;;15.50;70.00;;;;;;2249559;55;21045;-68
2021/04/15 11:12:29;;;;;;;3.05;1.70;;;15.80;68.10;;;;;;2482460;55;20960;-68
2021/04/15 11:15:09;;;;;;;4.15;1.87;;;15.90;65.10;;;;;;2235934;56;21559;-66
2021/04/15 11:17:41;;;;;;;4.12;2.47;;;15.90;63.60;;;;;;2481818;55;21609;-66
2021/04/15 11:20:43;;;;;;;3.28;1.70;;;15.80;62.30;;;;;;2481433;55;21778;-67
2021/04/15 11:23:31;;;;;;;3.53;1.60;;;15.70;59.70;;;;;;2480180;55;21488;-67
2021/04/15 11:29:22;;;;;;;3.75;1.95;;;15.50;59.30;;;;;;2255536;56;20992;-66
2021/04/15 11:31:49;;;;;;;4.20;1.80;;;15.20;58.70;;;;;;2252396;56;20992;-68
2021/04/15 11:34:26;;;;;;;4.07;1.67;;;14.70;59.80;;;;;;2254293;56;21004;-67
2021/04/15 11:37:08;;;;;;;3.42;2.10;;;14.50;58.70;;;;;;2481451;55;21036;-66
2021/04/15 11:39:37;;;;;;;3.83;1.65;;;14.30;58.60;;;;;;2479945;55;21515;-67
2021/04/15 11:42:10;;;;;;;2.92;1.75;;;14.10;59.50;;;;;;2250603;56;20985;-65
2021/04/15 11:44:55;;;;;;;3.90;1.67;;;14.00;59.50;;;;;;2476505;55;20941;-66
2021/04/15 11:47:29;;;;;;;3.40;1.45;;;13.80;58.60;;;;;;2256874;55;20926;-67
2021/04/15 11:50:21;;;;;;;3.92;1.73;;;13.70;59.30;;;;;;2234255;56;21803;-66
2021/04/15 11:52:53;;;;;;;2.67;1.55;;;13.60;58.70;;;;;;2229375;56;21031;-65
2021/04/15 11:55:32;;;;;;;3.47;1.20;;;13.50;60.00;;;;;;2228063;56;21501;-66
2021/04/15 11:58:03;;;;;;;2.50;1.27;;;13.40;59.30;;;;;;2226457;56;20998;-68
2021/04/15 12:00:57;;;;;;;3.17;1.30;;;13.40;60.40;;;;;;2232233;56;21900;-68
2021/04/15 12:03:35;;;;;;;3.37;1.23;;;13.40;60.50;;;;;;2245295;56;21043;-68
2021/04/15 12:06:09;;;;;;;2.65;1.30;;;13.50;62.30;;;;;;2467952;55;20955;-65
2021/04/15 12:08:37;;;;;;;2.72;1.58;;;13.70;63.40;;;;;;2241446;56;20963;-67
2021/04/15 12:11:24;;;;;;;3.05;1.42;;;13.80;64.30;;;;;;2235290;56;20951;-67
2021/04/15 12:13:58;;;;;;;3.90;1.60;;;14.00;62.60;;;;;;2248114;56;21121;-65
2021/04/15 12:17:28;;;;;;;3.62;1.58;;;14.10;62.50;;;;;;2257885;56;21018;-68
2021/04/15 12:20:19;;;;;;;2.72;1.20;;;14.20;60.00;;;;;;2235064;56;20967;-66
2021/04/15 12:23:44;;;;;;;4.07;1.60;;;14.10;59.00;;;;;;2235724;56;20963;-66
2021/04/15 12:27:02;;;;;;;2.72;1.17;;;14.00;57.50;;;;;;2466782;55;21736;-69
2021/04/15 12:30:02;;;;;;;3.15;0.95;;;13.90;58.10;;;;;;2234912;56;20971;-68
2021/04/15 12:33:10;;;;;;;2.53;1.10;;;13.80;58.30;;;;;;2252244;56;20985;-67
2021/04/15 12:35:48;;;;;;;3.42;1.35;;;13.70;58.80;;;;;;2238311;56;20992;-64
2021/04/15 12:40:07;;;;;;;2.37;1.12;;;13.60;59.00;;;;;;2234649;56;20997;-66
2021/04/15 12:42:36;;;;;;;2.35;1.02;;;13.60;59.50;;;;;;2230708;57;21479;-66
2021/04/15 12:45:04;;;;;;;3.17;1.20;;;13.60;60.20;;;;;;2471040;55;21020;-69
2021/04/15 12:47:35;;;;;;;3.20;1.40;;;13.50;60.60;;;;;;2241832;56;21794;-66
2021/04/15 12:50:01;;;;;;;3.30;1.48;;;13.60;61.10;;;;;;2260212;56;21443;-66
2021/04/15 12:52:29;;;;;;;3.20;1.50;;;13.70;62.40;;;;;;2488515;55;20954;-67
2021/04/15 12:54:57;;;;;;;3.00;1.62;;;13.90;62.60;;;;;;2485371;55;21036;-67
2021/04/15 12:57:24;;;;;;;3.42;1.48;;;14.00;62.90;;;;;;2238668;56;21016;-67
2021/04/15 12:59:54;;;;;;;3.17;1.62;;;14.10;63.10;;;;;;2260236;56;20988;-67
2021/04/15 13:02:25;;;;;;;3.10;1.60;;;14.40;63.00;;;;;;2488618;55;21017;-70
2021/04/15 13:05:07;;;;;;;3.25;1.77;;;14.50;62.10;;;;;;2260840;56;20936;-68
2021/04/15 13:07:42;;;;;;;4.03;1.60;;;14.60;60.80;;;;;;2237264;56;20932;-66
2021/04/15 13:10:38;;;;;;;2.72;1.40;;;14.70;60.00;;;;;;2488394;55;20997;-66
2021/04/15 13:13:20;;;;;;;2.85;1.50;;;14.70;58.40;;;;;;2240985;56;21118;-68
2021/04/15 13:15:48;;;;;;;2.67;1.12;;;14.70;58.50;;;;;;2258254;55;20949;-67
2021/04/15 13:18:34;;;;;;;3.87;1.45;;;14.70;59.20;;;;;;2260338;55;21013;-66
2021/04/15 13:21:07;;;;;;;2.70;1.30;;;14.70;58.70;;;;;;2255952;55;20936;-67
2021/04/15 13:23:36;;;;;;;2.75;1.40;;;14.70;59.60;;;;;;2260255;55;21136;-65
2021/04/15 13:26:28;;;;;;;2.62;1.15;;;14.70;60.20;;;;;;2276026;55;21046;-69
2021/04/15 13:29:26;;;;;;;3.33;1.40;;;14.80;59.00;;;;;;2255551;55;21750;-67
2021/04/15 13:31:55;;;;;;;4.80;1.40;;;15.00;58.90;;;;;;2259692;55;20964;-66
2021/04/15 13:44:39;;;;;;;2.87;1.05;;;15.10;60.70;;;;;;2488755;55;20965;-67
2021/04/15 13:47:43;;;;;;;3.10;1.00;;;15.20;58.10;;;;;;2260764;55;20969;-67
2021/04/15 13:50:10;;;;;;;2.75;1.08;;;15.10;57.70;;;;;;2260795;55;20961;-64
2021/04/15 13:52:37;;;;;;;2.50;1.10;;;15.10;59.10;;;;;;2257906;55;20980;-67
2021/04/15 13:55:29;;;;;;;4.07;1.20;;;15.00;59.00;;;;;;2260685;55;20980;-64
2021/04/15 13:57:55;;;;;;;2.92;1.25;;;15.00;56.70;;;;;;2259160;55;21013;-65
2021/04/15 14:00:44;;;;;;;2.72;1.30;;;14.90;58.30;;;;;;2259875;55;21021;-66
2021/04/15 14:03:11;;;;;;;2.03;0.93;;;14.90;57.00;;;;;;2488391;55;21021;-67
2021/04/15 14:05:40;;;;;;;2.03;1.00;;;14.90;58.40;;;;;;2274715;55;21442;-66
2021/04/15 14:08:39;;;;;;;2.12;0.90;;;14.90;58.00;;;;;;2253983;55;20979;-65
2021/04/15 14:11:51;;;;;;;2.50;1.10;;;14.90;56.20;;;;;;2274372;55;21038;-67
2021/04/15 14:14:22;;;;;;;2.67;1.05;;;14.90;56.10;;;;;;2232966;55;21925;-66
2021/04/15 14:16:52;;;;;;;2.50;1.10;;;15.00;58.10;;;;;;2231434;55;20954;-66
2021/04/15 14:19:37;;;;;;;3.28;1.23;;;15.00;58.30;;;;;;2455139;55;21901;-66
2021/04/15 14:22:36;;;;;;;2.50;1.35;;;15.10;58.10;;;;;;2459283;55;21067;-64
2021/04/15 14:25:24;;;;;;;4.35;1.80;;;15.20;57.20;;;;;;2467413;55;20964;-65
2021/04/15 14:27:51;;;;;;;3.87;1.75;;;15.30;58.10;;;;;;2232339;56;20973;-66
2021/04/15 14:30:18;;;;;;;3.15;1.67;;;15.40;59.20;;;;;;2236974;56;21036;-68
2021/04/15 14:32:45;;;;;;;3.10;1.60;;;15.50;59.50;;;;;;2240965;56;21068;-65
2021/04/15 14:35:19;;;;;;;3.42;1.70;;;15.70;59.20;;;;;;2264031;55;21028;-67
2021/04/15 14:37:46;;;;;;;3.50;1.90;;;15.70;58.40;;;;;;2257430;56;20969;-66
2021/04/15 14:40:31;;;;;;;2.92;1.60;;;15.80;58.20;;;;;;2257369;56;20961;-66
2021/04/15 14:42:58;;;;;;;3.22;1.42;;;15.90;57.40;;;;;;2258107;55;21430;-69
2021/04/15 14:45:34;;;;;;;3.47;1.75;;;15.90;58.40;;;;;;2484698;55;21068;-68
2021/04/15 14:51:32;;;;;;;2.83;1.30;;;15.90;57.50;;;;;;2481187;55;21849;-66
2021/04/15 14:54:14;;;;;;;2.53;1.12;;;16.00;56.30;;;;;;2253562;55;20996;-66
2021/04/15 14:56:40;;;;;;;;;;;15.80;56.80;;;;;;2256863;55;21885;-64
2021/04/15 14:59:11;;;;;;;3.45;1.50;;;15.80;55.00;;;;;;2252910;55;20069;-66
2021/04/15 15:01:40;;;;;;;3.10;1.45;;;15.70;56.30;;;;;;2481759;55;20969;-67
2021/04/15 15:04:13;;;;;;;3.55;1.70;;;15.50;55.70;;;;;;2255721;55;20928;-68
2021/04/15 15:06:41;;;;;;;3.58;1.70;;;15.40;55.30;;;;;;2483083;55;20972;-66
2021/04/15 15:09:12;;;;;;;3.67;1.70;;;15.30;55.70;;;;;;2482243;55;22536;-64
2021/04/15 15:12:03;;;;;;;4.18;1.98;;;15.20;55.50;;;;;;2482519;55;21594;-65
2021/04/15 15:14:31;;;;;;;3.60;1.60;;;15.10;54.30;;;;;;2483659;55;20933;-67
2021/04/15 15:16:57;;;;;;;3.03;1.45;;;14.90;55.30;;;;;;2486557;55;21053;-68
2021/04/15 15:20:00;;;;;;;4.43;1.73;;;14.80;55.10;;;;;;2259111;56;20985;-65
2021/04/15 15:22:39;;;;;;;3.25;1.33;;;14.80;53.80;;;;;;2260331;56;21719;-65
2021/04/15 15:26:15;;;;;;;3.30;1.50;;;14.60;54.10;;;;;;2259245;56;21052;-65
2021/04/15 15:28:51;;;;;;;2.62;1.40;;;14.50;53.30;;;;;;2260082;56;21032;-67
2021/04/15 15:31:48;;;;;;;3.10;1.52;;;14.30;54.10;;;;;;2462872;55;20977;-66
2021/04/15 15:34:20;;;;;;;3.50;1.58;;;14.20;53.60;;;;;;2487435;55;21001;-67
2021/04/15 15:36:48;;;;;;;2.80;1.25;;;14.10;55.00;;;;;;2489098;55;20937;-67
2021/04/15 15:39:35;;;;;;;2.85;1.50;;;13.90;54.70;;;;;;2258964;56;21014;-66
2021/04/15 15:50:11;;;;;;;3.45;1.52;;;13.70;54.50;;;;;;2488456;55;21049;-66
2021/04/15 15:52:38;;;;;;;3.28;1.50;;;13.60;54.00;;;;;;2269224;55;21009;-66
2021/04/15 15:55:13;;;;;;;3.80;1.40;;;13.60;55.70;;;;;;2493674;55;21036;-65
2021/04/15 15:57:43;;;;;;;4.72;2.10;;;13.50;55.60;;;;;;2480507;55;21100;-64
2021/04/15 16:00:17;;;;;;;4.28;2.00;;;13.50;55.50;;;;;;2488487;55;20960;-67
2021/04/15 16:02:50;;;;;;;4.50;1.77;;;13.50;55.40;;;;;;2260637;56;21076;-67
2021/04/15 16:05:29;;;;;;;3.72;1.83;;;13.50;55.40;;;;;;2263943;55;21619;-65
2021/04/15 16:08:32;;;;;;;3.78;1.90;;;13.40;55.10;;;;;;2488472;55;21059;-64
2021/04/15 16:11:45;;;;;;;3.72;2.12;;;13.50;54.90;;;;;;2486333;55;21351;-64
2021/04/15 16:16:49;;;;;;;5.15;2.42;;;13.50;55.00;;;;;;2263479;55;20948;-68
2021/04/15 16:19:16;;;;;;;3.40;1.85;;;13.50;55.60;;;;;;2255183;56;21013;-68
2021/04/15 16:21:43;;;;;;;3.85;1.95;;;13.60;56.70;;;;;;2261888;55;20992;-66
2021/04/15 16:24:44;;;;;;;3.25;1.75;;;13.50;56.60;;;;;;2261337;55;21097;-67
2021/04/15 16:27:12;;;;;;;4.12;1.60;;;13.50;55.10;;;;;;2264574;55;20968;-64
2021/04/15 16:33:06;;;;;;;3.10;1.60;;;13.60;55.10;;;;;;2485276;55;21024;-65
2021/04/15 16:35:32;;;;;;;2.95;1.50;;;13.60;56.50;;;;;;2257161;56;20976;-67
2021/04/15 16:38:01;;;;;;;4.18;1.30;;;13.60;56.00;;;;;;2255876;56;21015;-68
2021/04/15 16:40:29;;;;;;;4.07;1.42;;;13.60;55.90;;;;;;2488972;55;21029;-64